Time;durP1;ratioP1;P1;durP2;ratioP2;P2;SDS_P1;SDS_P2;PMS_P1;PMS_P2;Temp;Humidity;BMP_temperature;BMP_pressure;BME280_temperature;BME280_humidity;BME280_pressure;Samples;Min_cycle;Max_cycle;Signal;HPM_P1;HPM_P2
2020/12/12 00:01:36;;;;;;;45.38;31.20;;;3.90;96.70;;;;;;5025035;28;20237;-68
2020/12/12 00:04:02;;;;;;;51.60;31.98;;;4.00;96.60;;;;;;5038122;28;20132;-69
2020/12/12 00:06:28;;;;;;;50.40;31.45;;;3.90;96.70;;;;;;5025701;28;20068;-70
2020/12/12 00:09:15;;;;;;;49.88;35.78;;;3.90;96.70;;;;;;5038025;28;20472;-70
2020/12/12 00:12:01;;;;;;;51.80;33.33;;;3.90;96.70;;;;;;5031852;28;20456;-69
2020/12/12 00:14:46;;;;;;;48.78;31.50;;;3.90;96.70;;;;;;5038787;28;20068;-69
2020/12/12 00:17:32;;;;;;;51.35;32.75;;;3.90;97.00;;;;;;5034095;28;20099;-70
2020/12/12 00:19:57;;;;;;;49.70;31.08;;;3.90;96.70;;;;;;5040078;28;20867;-68
2020/12/12 00:22:43;;;;;;;55.25;35.38;;;3.90;96.80;;;;;;5010528;28;20485;-70
2020/12/12 00:25:09;;;;;;;58.25;32.60;;;3.90;96.90;;;;;;5033640;28;20511;-69
2020/12/12 00:27:35;;;;;;;46.40;28.83;;;3.90;96.90;;;;;;5043709;28;20048;-69
2020/12/12 00:30:21;;;;;;;58.33;35.55;;;3.90;96.90;;;;;;5032025;28;20054;-69
2020/12/12 00:33:07;;;;;;;48.75;30.13;;;3.90;96.90;;;;;;5024068;28;20045;-70
2020/12/12 00:35:52;;;;;;;51.28;32.38;;;3.90;96.80;;;;;;5038653;28;20037;-69
2020/12/12 00:38:38;;;;;;;49.30;29.38;;;3.90;96.80;;;;;;5042617;28;20059;-70
2020/12/12 00:41:05;;;;;;;52.42;30.77;;;3.90;96.90;;;;;;5028334;28;20486;-69
2020/12/12 00:43:33;;;;;;;53.85;34.30;;;3.90;96.80;;;;;;5027784;28;20033;-70
2020/12/12 00:45:59;;;;;;;46.47;30.20;;;3.90;96.90;;;;;;5029539;28;20551;-70
2020/12/12 00:48:25;;;;;;;51.95;33.47;;;3.90;96.90;;;;;;5026449;28;20086;-69
2020/12/12 00:50:50;;;;;;;47.20;29.50;;;3.90;96.80;;;;;;5035558;28;20119;-70
2020/12/12 00:53:16;;;;;;;48.05;32.65;;;3.90;96.80;;;;;;5024803;28;20045;-69
2020/12/12 00:55:42;;;;;;;47.55;30.85;;;3.80;96.90;;;;;;5039988;28;20416;-70
2020/12/12 00:58:28;;;;;;;44.55;29.02;;;3.80;96.90;;;;;;5041045;28;20059;-70
2020/12/12 01:00:53;;;;;;;50.67;32.63;;;3.90;96.80;;;;;;5044486;28;20053;-69
2020/12/12 01:03:41;;;;;;;52.92;32.38;;;3.90;96.80;;;;;;5055803;28;20053;-69
2020/12/12 01:06:10;;;;;;;50.58;31.80;;;3.80;96.90;;;;;;5044125;28;20041;-70
2020/12/12 01:08:37;;;;;;;48.60;31.35;;;3.80;96.80;;;;;;5041186;28;20056;-69
2020/12/12 01:11:04;;;;;;;48.58;30.08;;;3.90;96.70;;;;;;5024053;28;20136;-69
2020/12/12 01:13:49;;;;;;;49.38;34.72;;;3.80;96.90;;;;;;5024004;28;20477;-69
2020/12/12 01:16:15;;;;;;;46.65;29.25;;;3.90;96.70;;;;;;5038815;28;20127;-69
2020/12/12 01:18:42;;;;;;;47.33;30.20;;;3.80;96.70;;;;;;5040504;28;20115;-70
2020/12/12 01:21:08;;;;;;;54.15;34.47;;;3.90;96.60;;;;;;5023488;28;20128;-68
2020/12/12 01:23:54;;;;;;;50.88;32.30;;;3.90;96.80;;;;;;5033384;28;20226;-68
2020/12/12 01:26:19;;;;;;;49.00;29.27;;;3.90;96.80;;;;;;5023880;28;20456;-67
2020/12/12 01:28:45;;;;;;;53.17;34.58;;;3.90;96.70;;;;;;5034636;28;20054;-69
2020/12/12 01:31:30;;;;;;;46.53;31.58;;;3.80;96.70;;;;;;5023057;28;20049;-68
2020/12/12 01:33:56;;;;;;;53.40;36.33;;;3.80;96.70;;;;;;5031060;28;20516;-69
2020/12/12 01:36:42;;;;;;;46.65;29.88;;;3.80;96.80;;;;;;5022483;28;20245;-69
2020/12/12 01:39:08;;;;;;;50.05;35.47;;;3.80;96.60;;;;;;5031874;28;20510;-69
2020/12/12 01:41:33;;;;;;;50.10;31.77;;;3.80;96.60;;;;;;5023416;28;20075;-69
2020/12/12 01:44:19;;;;;;;48.85;30.17;;;3.90;96.50;;;;;;5027089;28;20509;-70
2020/12/12 01:46:47;;;;;;;52.78;30.33;;;3.90;96.70;;;;;;5023861;28;20045;-68
2020/12/12 01:49:12;;;;;;;42.60;29.10;;;3.90;96.40;;;;;;5034921;28;20076;-70
2020/12/12 01:51:39;;;;;;;50.55;33.22;;;3.90;96.50;;;;;;5023487;28;20131;-68
2020/12/12 01:54:05;;;;;;;52.65;33.75;;;3.80;96.60;;;;;;5032616;28;20033;-70
2020/12/12 01:56:32;;;;;;;50.53;30.55;;;3.90;96.80;;;;;;5025133;28;20107;-70
2020/12/12 01:59:17;;;;;;;54.10;35.97;;;3.80;96.60;;;;;;5035756;28;20100;-69
2020/12/12 02:02:06;;;;;;;48.15;30.48;;;3.80;96.50;;;;;;5029783;28;20136;-69
2020/12/12 02:04:35;;;;;;;47.75;30.70;;;3.90;96.60;;;;;;5035755;28;20041;-68
2020/12/12 02:07:00;;;;;;;51.58;35.70;;;3.90;96.70;;;;;;5027940;28;20175;-70
2020/12/12 02:09:26;;;;;;;55.83;37.97;;;3.80;96.90;;;;;;5037783;28;20128;-68
2020/12/12 02:12:12;;;;;;;53.80;32.22;;;3.80;96.80;;;;;;5028565;28;20505;-67
2020/12/12 02:14:38;;;;;;;51.45;31.75;;;3.80;96.70;;;;;;5033259;28;20123;-69
2020/12/12 02:17:06;;;;;;;51.15;32.50;;;3.80;96.80;;;;;;5028601;28;20041;-69
2020/12/12 02:19:32;;;;;;;54.17;35.72;;;3.80;96.80;;;;;;5034165;28;20390;-69
2020/12/12 02:22:18;;;;;;;55.65;33.58;;;3.80;96.80;;;;;;5028504;28;20106;-68
2020/12/12 02:24:44;;;;;;;57.95;39.85;;;3.80;96.80;;;;;;5033845;28;20053;-70
2020/12/12 02:27:09;;;;;;;50.40;31.75;;;3.80;97.00;;;;;;5027587;28;20061;-70
2020/12/12 02:29:46;;;;;;;57.72;33.47;;;3.80;97.10;;;;;;5036103;28;20058;-69
2020/12/12 02:32:11;;;;;;;59.03;36.38;;;3.80;96.90;;;;;;5030438;28;20045;-69
2020/12/12 02:34:37;;;;;;;54.25;33.17;;;3.80;97.10;;;;;;5038627;28;20731;-69
2020/12/12 02:37:23;;;;;;;50.72;32.85;;;3.80;97.10;;;;;;5030847;28;20190;-69
2020/12/12 02:39:48;;;;;;;59.38;35.67;;;3.80;97.10;;;;;;5038490;28;20574;-69
2020/12/12 02:42:34;;;;;;;58.50;37.75;;;3.80;97.20;;;;;;5031508;28;20321;-69
2020/12/12 02:45:00;;;;;;;58.03;35.30;;;3.80;97.30;;;;;;5045818;28;20494;-68
2020/12/12 02:47:46;;;;;;;64.85;38.63;;;3.80;97.50;;;;;;5056977;28;20444;-68
2020/12/12 02:50:13;;;;;;;65.15;37.42;;;3.70;97.90;;;;;;5032609;28;20045;-69
2020/12/12 02:52:40;;;;;;;68.50;37.97;;;3.70;98.00;;;;;;5044686;28;20263;-69
2020/12/12 02:55:08;;;;;;;66.47;36.65;;;3.70;98.00;;;;;;5032709;28;20099;-70
2020/12/12 02:57:35;;;;;;;71.80;38.38;;;3.70;98.20;;;;;;5042701;28;20045;-69
2020/12/12 03:00:10;;;;;;;77.22;44.70;;;3.70;98.40;;;;;;5035306;28;20490;-70
2020/12/12 03:02:35;;;;;;;76.82;41.15;;;3.70;98.40;;;;;;5042318;28;20045;-70
2020/12/12 03:05:01;;;;;;;85.82;42.03;;;3.70;98.60;;;;;;5035781;28;20050;-68
2020/12/12 03:07:27;;;;;;;89.18;44.83;;;3.70;98.70;;;;;;5040965;28;20448;-70
2020/12/12 03:09:52;;;;;;;91.60;47.40;;;3.70;98.90;;;;;;5037273;28;20053;-69
2020/12/12 03:12:18;;;;;;;84.05;45.72;;;3.70;98.90;;;;;;5037815;28;20049;-69
2020/12/12 03:15:05;;;;;;;75.53;40.85;;;3.70;99.00;;;;;;5052537;28;20049;-69
2020/12/12 03:17:50;;;;;;;74.68;36.97;;;3.70;98.90;;;;;;5043213;28;20053;-69
2020/12/12 03:20:16;;;;;;;77.18;39.75;;;3.70;98.80;;;;;;5034611;28;20148;-68
2020/12/12 03:23:02;;;;;;;86.95;47.35;;;3.70;98.90;;;;;;5043125;28;20045;-69
2020/12/12 03:25:27;;;;;;;90.63;46.10;;;3.70;99.00;;;;;;5042505;28;20547;-69
2020/12/12 03:27:53;;;;;;;84.20;42.60;;;3.70;99.10;;;;;;5041791;28;20088;-69
2020/12/12 03:30:19;;;;;;;104.38;46.97;;;3.70;99.20;;;;;;5034556;28;20049;-69
2020/12/12 03:32:44;;;;;;;87.28;43.03;;;3.70;99.40;;;;;;5025760;28;20049;-69
2020/12/12 03:35:10;;;;;;;97.20;43.38;;;3.70;99.30;;;;;;5028780;28;20051;-69
2020/12/12 03:37:35;;;;;;;76.93;40.55;;;3.60;99.40;;;;;;5045758;28;20596;-69
2020/12/12 03:40:03;;;;;;;88.53;45.95;;;3.70;99.40;;;;;;5038357;28;20041;-69
2020/12/12 03:42:28;;;;;;;99.32;45.33;;;3.70;99.20;;;;;;5044207;28;20134;-69
2020/12/12 03:44:54;;;;;;;83.97;43.30;;;3.70;99.30;;;;;;5038273;28;20072;-69
2020/12/12 03:47:20;;;;;;;86.55;46.17;;;3.70;99.30;;;;;;5045492;28;20049;-69
2020/12/12 03:49:45;;;;;;;83.65;43.13;;;3.70;99.20;;;;;;5040373;28;20123;-69
2020/12/12 03:52:11;;;;;;;95.40;46.50;;;3.70;99.30;;;;;;5042925;28;20033;-68
2020/12/12 03:54:36;;;;;;;102.00;47.08;;;3.60;99.30;;;;;;5050956;28;20529;-69
2020/12/12 03:57:02;;;;;;;102.07;48.45;;;3.60;99.40;;;;;;5041820;28;20045;-69
2020/12/12 03:59:49;;;;;;;102.95;48.42;;;3.60;99.40;;;;;;5042952;28;20316;-69
2020/12/12 04:02:14;;;;;;;97.38;43.58;;;3.60;99.50;;;;;;5045474;28;20091;-69
2020/12/12 04:05:00;;;;;;;99.03;48.25;;;3.60;99.70;;;;;;5041431;28;20045;-69
2020/12/12 04:07:25;;;;;;;112.40;49.33;;;3.60;99.50;;;;;;5059075;28;20067;-68
2020/12/12 04:09:51;;;;;;;102.55;44.40;;;3.60;99.60;;;;;;5035408;28;20077;-70
2020/12/12 04:12:16;;;;;;;95.65;50.97;;;3.60;99.70;;;;;;5024904;28;20504;-69
2020/12/12 04:14:42;;;;;;;89.25;44.97;;;3.60;99.70;;;;;;5025115;28;20253;-69
2020/12/12 04:17:29;;;;;;;103.53;45.40;;;3.60;99.60;;;;;;5023874;28;20430;-69
2020/12/12 04:19:55;;;;;;;91.38;43.72;;;3.60;99.50;;;;;;5032745;28;20041;-69
2020/12/12 04:22:41;;;;;;;80.35;41.22;;;3.60;99.50;;;;;;5043281;28;20479;-70
2020/12/12 04:25:26;;;;;;;98.50;48.10;;;3.60;99.40;;;;;;5016118;28;20708;-69
2020/12/12 04:28:12;;;;;;;89.35;43.38;;;3.60;99.50;;;;;;5022723;28;20061;-69
2020/12/12 04:30:37;;;;;;;87.78;44.97;;;3.60;99.50;;;;;;5039892;28;20049;-70
2020/12/12 04:33:03;;;;;;;90.43;47.78;;;3.60;99.30;;;;;;5044736;28;20037;-69
2020/12/12 04:35:28;;;;;;;98.28;52.75;;;3.60;99.40;;;;;;5040239;28;20287;-69
2020/12/12 04:37:54;;;;;;;89.57;44.80;;;3.60;99.50;;;;;;5044184;28;20123;-69
2020/12/12 04:40:21;;;;;;;102.65;46.72;;;3.60;99.50;;;;;;5042577;28;20080;-69
2020/12/12 04:42:47;;;;;;;93.28;46.75;;;3.60;99.60;;;;;;5043621;28;20081;-69
2020/12/12 04:45:13;;;;;;;111.75;52.42;;;3.60;99.70;;;;;;5041183;28;20440;-69
2020/12/12 04:47:43;;;;;;;107.53;48.60;;;3.60;99.90;;;;;;5033992;28;20080;-69
2020/12/12 04:50:29;;;;;;;97.82;46.15;;;3.60;99.90;;;;;;5036787;28;20620;-68
2020/12/12 04:53:05;;;;;;;116.85;51.78;;;3.60;99.90;;;;;;5024971;28;20116;-70
2020/12/12 04:55:30;;;;;;;117.68;50.85;;;3.60;99.90;;;;;;5043152;28;20076;-69
2020/12/12 04:57:59;;;;;;;103.97;46.83;;;3.60;99.90;;;;;;5033522;28;20080;-69
2020/12/12 05:00:26;;;;;;;116.50;48.00;;;3.60;99.90;;;;;;5043806;28;20563;-70
2020/12/12 05:02:52;;;;;;;112.45;50.30;;;3.60;99.90;;;;;;5034729;28;20100;-69
2020/12/12 05:05:38;;;;;;;98.75;51.45;;;3.60;99.90;;;;;;5042329;28;20044;-69
2020/12/12 05:08:24;;;;;;;116.05;48.65;;;3.60;99.90;;;;;;5031536;28;20579;-68
2020/12/12 05:10:51;;;;;;;101.05;46.53;;;3.70;99.90;;;;;;5027728;28;20069;-69
2020/12/12 05:13:23;;;;;;;109.38;49.03;;;3.70;99.90;;;;;;5025784;28;20049;-69
2020/12/12 05:16:09;;;;;;;95.10;45.33;;;3.60;99.90;;;;;;5042695;28;20057;-69
2020/12/12 05:18:34;;;;;;;121.03;52.58;;;3.70;99.90;;;;;;5033743;28;20045;-68
2020/12/12 05:21:00;;;;;;;104.13;49.22;;;3.60;99.90;;;;;;5044505;28;20044;-70
2020/12/12 05:23:25;;;;;;;103.22;46.28;;;3.60;99.90;;;;;;5032593;28;20526;-69
2020/12/12 05:25:52;;;;;;;104.75;50.35;;;3.70;99.90;;;;;;5043591;28;20041;-70
2020/12/12 05:28:40;;;;;;;97.18;47.63;;;3.70;99.80;;;;;;5027064;28;20119;-69
2020/12/12 05:31:06;;;;;;;97.60;46.00;;;3.70;99.80;;;;;;5023804;28;20069;-68
2020/12/12 05:33:31;;;;;;;101.70;49.38;;;3.70;99.80;;;;;;5026024;28;20119;-69
2020/12/12 05:35:57;;;;;;;103.00;49.20;;;3.70;99.80;;;;;;5023466;28;20252;-70
2020/12/12 05:38:23;;;;;;;112.63;48.60;;;3.70;99.80;;;;;;5025174;28;20060;-68
2020/12/12 05:40:55;;;;;;;99.93;49.47;;;3.70;99.80;;;;;;5024583;28;20041;-70
2020/12/12 05:43:27;;;;;;;95.82;48.40;;;3.70;99.70;;;;;;5024066;28;20111;-69
2020/12/12 05:46:13;;;;;;;96.32;45.85;;;3.70;99.70;;;;;;5022826;28;20077;-70
2020/12/12 05:48:38;;;;;;;91.97;44.83;;;3.70;99.60;;;;;;5036839;28;20154;-69
2020/12/12 05:51:27;;;;;;;86.63;44.63;;;3.70;99.70;;;;;;5042290;28;20405;-70
2020/12/12 05:54:13;;;;;;;90.85;46.08;;;3.70;99.60;;;;;;5041226;28;20060;-69
2020/12/12 05:57:00;;;;;;;90.65;48.65;;;3.70;99.50;;;;;;5041337;28;20555;-69
2020/12/12 05:59:26;;;;;;;88.57;44.65;;;3.70;99.50;;;;;;5045558;28;20049;-68
2020/12/12 06:01:54;;;;;;;84.65;44.28;;;3.70;99.50;;;;;;5043812;28;20045;-69
2020/12/12 06:04:51;;;;;;;83.68;42.92;;;3.70;99.40;;;;;;5041774;28;20401;-69
2020/12/12 06:07:27;;;;;;;78.85;41.70;;;3.80;99.30;;;;;;5044432;28;20102;-70
2020/12/12 06:09:58;;;;;;;84.00;46.08;;;3.80;99.10;;;;;;5028312;28;20080;-68
2020/12/12 06:12:25;;;;;;;76.18;44.13;;;3.70;99.10;;;;;;5036641;28;20056;-68
2020/12/12 06:14:54;;;;;;;81.20;46.38;;;3.80;99.20;;;;;;5027919;28;20041;-69
2020/12/12 06:17:54;;;;;;;86.13;44.45;;;3.80;99.20;;;;;;5037155;28;20048;-69
2020/12/12 06:20:20;;;;;;;76.68;42.35;;;3.80;99.10;;;;;;5047112;28;20121;-69
2020/12/12 06:22:46;;;;;;;76.07;42.80;;;3.80;99.00;;;;;;5043267;28;20080;-69
2020/12/12 06:25:32;;;;;;;85.43;42.88;;;3.80;99.00;;;;;;5045918;28;20044;-69
2020/12/12 06:28:24;;;;;;;73.30;43.00;;;3.80;98.80;;;;;;5033114;28;20080;-70
2020/12/12 06:30:50;;;;;;;75.35;42.58;;;3.80;98.90;;;;;;5027471;28;20152;-69
2020/12/12 06:33:16;;;;;;;79.50;47.67;;;3.80;98.80;;;;;;5033649;28;20045;-70
2020/12/12 06:36:32;;;;;;;78.22;43.13;;;3.80;98.70;;;;;;5026037;28;20055;-70
2020/12/12 06:39:26;;;;;;;83.68;45.72;;;3.80;98.60;;;;;;5031868;28;20042;-69
2020/12/12 06:41:57;;;;;;;69.97;39.40;;;3.80;98.70;;;;;;5030644;28;20069;-68
2020/12/12 06:44:34;;;;;;;81.35;45.60;;;3.90;98.60;;;;;;5032193;28;20119;-68
2020/12/12 06:47:37;;;;;;;75.03;41.00;;;3.90;98.60;;;;;;5044205;28;20048;-68
2020/12/12 06:50:36;;;;;;;80.85;43.30;;;3.80;98.70;;;;;;5025749;28;20049;-68
2020/12/12 06:53:19;;;;;;;73.30;41.58;;;3.80;98.60;;;;;;5029924;28;20052;-68
2020/12/12 06:55:45;;;;;;;80.30;43.08;;;3.80;98.60;;;;;;5046626;28;20198;-69
2020/12/12 06:58:24;;;;;;;78.97;41.53;;;3.80;98.70;;;;;;5041872;28;20592;-69
2020/12/12 07:00:49;;;;;;;78.15;41.75;;;3.80;98.70;;;;;;5046286;28;20041;-70
2020/12/12 07:03:35;;;;;;;81.55;42.30;;;3.80;98.70;;;;;;5042072;28;20068;-71
2020/12/12 07:06:25;;;;;;;74.50;40.60;;;3.80;98.80;;;;;;5025978;28;20398;-68
2020/12/12 07:08:51;;;;;;;76.13;42.25;;;3.80;98.80;;;;;;5035420;28;20132;-68
2020/12/12 07:11:23;;;;;;;87.60;42.22;;;3.80;98.70;;;;;;5037620;28;20757;-70
2020/12/12 07:14:08;;;;;;;75.35;40.45;;;3.80;98.80;;;;;;5040499;28;20165;-70
2020/12/12 07:16:59;;;;;;;81.63;42.92;;;3.90;98.80;;;;;;5037931;28;20048;-68
2020/12/12 07:19:38;;;;;;;80.45;40.97;;;3.80;98.80;;;;;;5037698;28;20132;-69
2020/12/12 07:22:09;;;;;;;90.63;44.97;;;3.90;98.80;;;;;;5044558;28;20060;-69
2020/12/12 07:24:35;;;;;;;79.43;41.13;;;3.80;98.90;;;;;;5041622;28;20053;-69
2020/12/12 07:27:02;;;;;;;88.22;44.30;;;3.80;98.90;;;;;;5039074;28;20140;-69
2020/12/12 07:29:28;;;;;;;85.53;45.67;;;3.80;99.00;;;;;;5039373;28;20221;-70
2020/12/12 07:31:54;;;;;;;84.30;43.65;;;3.90;99.00;;;;;;5040239;28;20048;-68
2020/12/12 07:34:21;;;;;;;81.75;40.80;;;3.80;98.90;;;;;;5043404;28;20169;-70
2020/12/12 07:37:02;;;;;;;86.60;42.00;;;3.80;98.90;;;;;;5042029;28;20611;-69
2020/12/12 07:39:37;;;;;;;79.75;40.67;;;3.90;98.90;;;;;;5035201;28;20642;-69
2020/12/12 07:42:04;;;;;;;88.78;45.70;;;3.90;98.80;;;;;;5022496;28;20164;-69
2020/12/12 07:44:31;;;;;;;86.63;42.00;;;3.90;98.80;;;;;;5027841;28;20049;-69
2020/12/12 07:47:17;;;;;;;93.97;43.55;;;3.80;98.90;;;;;;5030527;28;20045;-70
2020/12/12 07:49:43;;;;;;;100.00;45.58;;;3.80;98.80;;;;;;5035008;28;20396;-69
2020/12/12 07:52:11;;;;;;;88.78;41.63;;;3.80;98.90;;;;;;5044525;28;20091;-69
2020/12/12 07:54:45;;;;;;;94.47;47.70;;;3.80;98.90;;;;;;5033804;28;20072;-69
2020/12/12 07:57:13;;;;;;;98.25;47.10;;;3.90;98.90;;;;;;5043478;28;20041;-69
2020/12/12 08:00:12;;;;;;;97.57;47.25;;;3.80;98.90;;;;;;5032762;28;20057;-69
2020/12/12 08:02:58;;;;;;;102.32;47.72;;;3.90;99.00;;;;;;5042555;28;20199;-69
2020/12/12 08:05:25;;;;;;;88.43;41.70;;;3.80;99.00;;;;;;5026186;28;20059;-68
2020/12/12 08:07:51;;;;;;;107.45;48.50;;;3.90;99.00;;;;;;5025319;28;20045;-72
2020/12/12 08:10:38;;;;;;;105.13;43.28;;;3.90;99.00;;;;;;5026870;28;20048;-70
2020/12/12 08:13:03;;;;;;;102.78;44.72;;;3.90;99.00;;;;;;5037778;28;20052;-70
2020/12/12 08:15:43;;;;;;;104.22;44.20;;;3.90;98.80;;;;;;5034754;28;20037;-68
2020/12/12 08:18:14;;;;;;;95.55;43.95;;;3.90;98.90;;;;;;5042815;28;20390;-69
2020/12/12 08:21:18;;;;;;;105.93;46.03;;;4.00;98.90;;;;;;5015890;28;20045;-69
2020/12/12 08:23:44;;;;;;;118.68;47.33;;;4.00;98.90;;;;;;5030922;28;20065;-69
2020/12/12 08:26:19;;;;;;;83.13;41.20;;;3.90;99.10;;;;;;5041115;28;20053;-70
2020/12/12 08:28:45;;;;;;;99.38;46.95;;;4.00;99.00;;;;;;5032721;28;20053;-70
2020/12/12 08:31:12;;;;;;;97.15;44.83;;;4.00;99.00;;;;;;5040081;28;20466;-70
2020/12/12 08:33:37;;;;;;;97.05;43.83;;;4.00;98.90;;;;;;5042111;28;20059;-70
2020/12/12 08:36:11;;;;;;;110.85;48.13;;;4.00;98.90;;;;;;5037198;28;20222;-70
2020/12/12 08:38:37;;;;;;;105.60;48.35;;;4.00;99.20;;;;;;5038336;28;20241;-70
2020/12/12 08:41:11;;;;;;;116.82;46.83;;;4.00;99.00;;;;;;5039952;28;20041;-70
2020/12/12 08:43:37;;;;;;;110.88;44.47;;;4.00;98.90;;;;;;5039853;28;20110;-69
2020/12/12 08:46:23;;;;;;;94.18;42.33;;;4.10;98.90;;;;;;5042143;28;20052;-69
2020/12/12 08:49:13;;;;;;;97.15;43.90;;;4.10;98.90;;;;;;5048763;28;20060;-69
2020/12/12 08:51:58;;;;;;;104.30;45.35;;;4.10;98.90;;;;;;5036304;28;20037;-70
2020/12/12 08:54:24;;;;;;;112.38;48.50;;;4.10;98.90;;;;;;5039785;28;20237;-70
2020/12/12 08:56:50;;;;;;;94.63;42.78;;;4.10;98.90;;;;;;5029173;28;20130;-69
2020/12/12 08:59:20;;;;;;;103.50;43.72;;;4.10;98.80;;;;;;5042187;28;20055;-69
2020/12/12 09:01:46;;;;;;;104.57;42.38;;;4.10;98.80;;;;;;5035806;28;20048;-70
2020/12/12 09:04:13;;;;;;;89.55;41.00;;;4.20;98.90;;;;;;5041801;28;20052;-71
2020/12/12 09:06:48;;;;;;;110.93;45.63;;;4.20;98.80;;;;;;5044818;28;20049;-70
2020/12/12 09:09:35;;;;;;;98.75;46.45;;;4.20;98.70;;;;;;5041168;28;20056;-69
2020/12/12 09:12:07;;;;;;;109.40;50.13;;;4.20;98.70;;;;;;5030669;28;20111;-69
2020/12/12 09:14:34;;;;;;;113.50;48.10;;;4.20;98.70;;;;;;5028958;28;20053;-68
2020/12/12 09:17:06;;;;;;;98.32;46.88;;;4.20;98.70;;;;;;5041048;28;20448;-69
2020/12/12 09:19:33;;;;;;;103.53;46.40;;;4.30;98.70;;;;;;5043206;28;20450;-69
2020/12/12 09:21:59;;;;;;;90.95;41.83;;;4.30;98.60;;;;;;5025398;28;20049;-70
2020/12/12 09:24:25;;;;;;;95.75;46.05;;;4.40;98.40;;;;;;5025933;28;20063;-70
2020/12/12 09:27:00;;;;;;;107.10;44.95;;;4.40;98.30;;;;;;5028504;28;20061;-69
2020/12/12 09:29:27;;;;;;;91.30;41.60;;;4.40;98.40;;;;;;5023287;28;20476;-70
2020/12/12 09:31:54;;;;;;;86.80;42.88;;;4.40;98.30;;;;;;5039393;28;20044;-69
2020/12/12 09:34:40;;;;;;;89.00;39.92;;;4.50;98.30;;;;;;5027165;28;20045;-69
2020/12/12 09:37:25;;;;;;;87.45;44.10;;;4.40;98.20;;;;;;5036313;28;20052;-70
2020/12/12 09:40:11;;;;;;;94.95;44.67;;;4.40;98.30;;;;;;5036945;28;20073;-69
2020/12/12 09:42:57;;;;;;;81.85;39.13;;;4.40;98.30;;;;;;5048788;28;20131;-70
2020/12/12 09:45:22;;;;;;;101.80;46.00;;;4.50;98.30;;;;;;5044645;28;20219;-69
2020/12/12 09:47:48;;;;;;;98.35;44.05;;;4.50;98.30;;;;;;5034873;28;20092;-69
2020/12/12 09:50:13;;;;;;;86.18;40.53;;;4.50;98.40;;;;;;5026282;28;20041;-69
2020/12/12 09:52:39;;;;;;;101.50;45.50;;;4.50;98.40;;;;;;5037442;28;20041;-69
2020/12/12 09:55:05;;;;;;;97.95;45.65;;;4.50;98.40;;;;;;5023783;28;20045;-69
2020/12/12 09:57:30;;;;;;;98.15;43.42;;;4.50;98.40;;;;;;5022378;28;20448;-69
2020/12/12 10:00:16;;;;;;;94.90;42.67;;;4.50;98.30;;;;;;5024008;28;20040;-70
2020/12/12 10:03:02;;;;;;;90.25;38.45;;;4.50;98.40;;;;;;5042062;28;20098;-69
2020/12/12 10:05:28;;;;;;;90.25;43.45;;;4.60;98.30;;;;;;5038228;28;20049;-69
2020/12/12 10:07:57;;;;;;;89.45;40.88;;;4.70;97.80;;;;;;5042126;28;20989;-69
2020/12/12 10:10:43;;;;;;;104.10;43.30;;;4.60;98.00;;;;;;5036462;28;20590;-69
2020/12/12 10:13:09;;;;;;;83.47;40.67;;;4.60;98.20;;;;;;5036428;28;20496;-69
2020/12/12 10:15:34;;;;;;;93.55;41.65;;;4.60;98.30;;;;;;5038884;28;20048;-69
2020/12/12 10:18:20;;;;;;;96.75;44.90;;;4.70;97.90;;;;;;5038459;28;20060;-69
2020/12/12 10:20:46;;;;;;;80.75;38.78;;;4.60;98.00;;;;;;5038805;28;20041;-67
2020/12/12 10:23:11;;;;;;;89.13;40.28;;;4.70;98.10;;;;;;5041600;28;20583;-69
2020/12/12 10:25:37;;;;;;;74.28;34.95;;;4.60;98.20;;;;;;5038674;28;20053;-69
2020/12/12 10:28:23;;;;;;;71.47;34.88;;;4.80;98.30;;;;;;5022255;28;20057;-68
2020/12/12 10:30:48;;;;;;;84.63;40.80;;;5.00;97.80;;;;;;5031744;28;20041;-66
2020/12/12 10:33:34;;;;;;;75.55;36.35;;;4.80;97.70;;;;;;5041456;28;20115;-68
2020/12/12 10:35:59;;;;;;;75.47;35.50;;;5.10;97.40;;;;;;5042249;28;20445;-69
2020/12/12 10:38:25;;;;;;;62.10;32.20;;;5.00;97.10;;;;;;5041609;28;20076;-67
2020/12/12 10:43:45;;;;;;;86.65;42.28;;;4.90;97.30;;;;;;5022175;28;20111;-68
2020/12/12 10:46:11;;;;;;;95.50;40.78;;;4.80;97.70;;;;;;5022932;28;20416;-66
2020/12/12 10:48:37;;;;;;;81.38;36.53;;;4.80;97.60;;;;;;5057005;28;20472;-67
2020/12/12 10:51:02;;;;;;;92.63;42.88;;;4.80;97.90;;;;;;5026936;28;20517;-66
2020/12/12 10:53:28;;;;;;;85.43;41.85;;;4.70;97.80;;;;;;5024713;28;20050;-66
2020/12/12 10:55:54;;;;;;;86.72;40.25;;;4.80;97.50;;;;;;5036723;28;20556;-66
2020/12/12 10:58:19;;;;;;;81.63;36.92;;;4.80;97.70;;;;;;5030581;28;20197;-67
2020/12/12 11:00:48;;;;;;;72.32;36.83;;;4.90;97.60;;;;;;5035322;28;20050;-67
2020/12/12 11:03:14;;;;;;;74.95;37.28;;;4.90;97.50;;;;;;5038790;28;20732;-67
2020/12/12 11:05:39;;;;;;;78.07;39.45;;;5.00;97.50;;;;;;5030971;28;20037;-67
2020/12/12 11:08:26;;;;;;;72.70;36.80;;;4.90;97.50;;;;;;5025687;28;20080;-67
2020/12/12 11:10:51;;;;;;;75.88;38.35;;;4.90;97.50;;;;;;5043764;28;20123;-67
2020/12/12 11:13:37;;;;;;;82.88;39.22;;;4.80;97.40;;;;;;5039574;28;20071;-68
2020/12/12 11:16:02;;;;;;;77.22;39.72;;;4.90;97.60;;;;;;5028524;28;20045;-67
2020/12/12 11:18:28;;;;;;;75.05;40.08;;;4.90;97.40;;;;;;5026675;28;20119;-68
2020/12/12 11:20:54;;;;;;;75.97;37.45;;;4.80;97.50;;;;;;5006336;28;20139;-67
2020/12/12 11:23:19;;;;;;;85.70;38.70;;;5.00;97.50;;;;;;5056852;28;20056;-67
2020/12/12 11:25:45;;;;;;;78.40;38.13;;;5.00;97.40;;;;;;5026370;28;20042;-67
2020/12/12 11:28:11;;;;;;;84.80;40.97;;;5.00;97.40;;;;;;5044195;28;20276;-67
2020/12/12 11:30:37;;;;;;;74.05;38.25;;;4.90;97.60;;;;;;5043128;28;20041;-66
2020/12/12 11:33:04;;;;;;;81.60;39.65;;;5.00;97.20;;;;;;5041321;28;20079;-66
2020/12/12 11:36:04;;;;;;;82.32;39.33;;;5.00;97.30;;;;;;5043482;28;20047;-68
2020/12/12 11:46:50;;;;;;;89.45;40.88;;;5.00;97.50;;;;;;5038310;28;20096;-67
2020/12/12 11:49:17;;;;;;;81.40;40.35;;;4.90;97.50;;;;;;5033298;28;20121;-67
2020/12/12 11:51:43;;;;;;;92.63;40.90;;;5.00;97.60;;;;;;5047735;28;20383;-68
2020/12/12 11:54:08;;;;;;;80.68;40.95;;;5.00;97.60;;;;;;5043595;28;20048;-67
2020/12/12 11:56:34;;;;;;;84.75;43.45;;;5.00;97.70;;;;;;5042344;28;20045;-67
2020/12/12 11:59:00;;;;;;;76.63;39.75;;;5.00;97.70;;;;;;5041916;28;20401;-66
2020/12/12 12:01:45;;;;;;;86.03;41.72;;;5.00;97.70;;;;;;5042164;28;20615;-67
2020/12/12 12:04:11;;;;;;;93.35;44.38;;;4.90;97.80;;;;;;5034690;28;21399;-67
2020/12/12 12:06:37;;;;;;;94.40;43.55;;;4.90;97.90;;;;;;5044729;28;20509;-67
2020/12/12 12:11:34;;;;;;;93.03;42.50;;;5.00;97.90;;;;;;5041256;28;20045;-67
2020/12/12 12:14:09;;;;;;;89.90;43.25;;;5.00;98.00;;;;;;5034897;28;20099;-66
2020/12/12 12:16:36;;;;;;;89.38;43.33;;;5.00;98.00;;;;;;5024185;28;20494;-67
2020/12/12 12:19:12;;;;;;;78.00;38.28;;;5.00;97.90;;;;;;5041854;28;20099;-68
2020/12/12 12:21:39;;;;;;;81.43;39.97;;;5.10;97.90;;;;;;5032987;28;20073;-67
2020/12/12 12:24:07;;;;;;;83.10;40.88;;;5.10;97.90;;;;;;5024759;28;20048;-67
2020/12/12 12:26:35;;;;;;;83.45;40.08;;;5.10;98.00;;;;;;5023108;28;20107;-67
2020/12/12 12:29:04;;;;;;;77.32;40.53;;;5.10;97.80;;;;;;5023877;28;20348;-66
2020/12/12 12:31:30;;;;;;;87.13;40.88;;;5.20;97.90;;;;;;5030676;28;20132;-67
2020/12/12 12:33:56;;;;;;;78.57;39.15;;;5.20;97.80;;;;;;5044057;28;20475;-67
2020/12/12 12:36:26;;;;;;;88.63;40.80;;;5.20;97.70;;;;;;5042644;28;20436;-66
2020/12/12 12:39:11;;;;;;;101.53;49.33;;;5.20;97.90;;;;;;5012822;28;20433;-68
2020/12/12 12:41:37;;;;;;;96.85;45.03;;;5.20;97.80;;;;;;5023455;28;20057;-67
2020/12/12 12:44:05;;;;;;;96.47;47.72;;;5.20;97.90;;;;;;5034097;28;20163;-68
2020/12/12 12:46:36;;;;;;;93.28;46.15;;;5.20;97.80;;;;;;5034407;28;20067;-67
2020/12/12 12:49:22;;;;;;;85.95;44.08;;;5.20;97.90;;;;;;5011589;28;20046;-67
2020/12/12 12:51:49;;;;;;;91.70;47.22;;;5.20;97.60;;;;;;5030847;28;20075;-67
2020/12/12 12:54:15;;;;;;;73.63;39.92;;;5.30;97.80;;;;;;5039170;28;20074;-67
2020/12/12 12:56:40;;;;;;;91.65;44.83;;;5.20;97.80;;;;;;5031648;28;20192;-67
2020/12/12 12:59:26;;;;;;;82.75;39.67;;;5.30;97.80;;;;;;5030840;28;20136;-66
2020/12/12 13:01:52;;;;;;;83.95;40.60;;;5.20;97.80;;;;;;5034176;28;20175;-67
2020/12/12 13:04:17;;;;;;;88.00;43.63;;;5.20;97.90;;;;;;5034052;28;20064;-68
2020/12/12 13:07:03;;;;;;;78.55;39.50;;;5.20;98.00;;;;;;5042703;28;20044;-67
2020/12/12 13:09:29;;;;;;;92.18;45.83;;;5.30;97.80;;;;;;5053246;28;20048;-67
2020/12/12 13:11:54;;;;;;;97.65;44.47;;;5.20;97.90;;;;;;5053409;28;20090;-67
2020/12/12 13:14:20;;;;;;;101.30;45.35;;;5.20;97.90;;;;;;5042224;28;20045;-67
2020/12/12 13:16:46;;;;;;;89.72;41.78;;;5.20;98.10;;;;;;5043297;28;20040;-67